createdAt,value
2022-08-17T00:02:26.366Z,79.73
2022-08-17T00:04:54.781Z,79.73
2022-08-17T00:07:22.433Z,80.21
2022-08-17T00:09:49.191Z,80.02
2022-08-17T00:12:42.579Z,80.49
2022-08-17T00:15:05.623Z,80.07
2022-08-17T00:17:35.755Z,79.33
2022-08-17T00:20:03.992Z,79.58
2022-08-17T00:22:35.673Z,79.59
2022-08-17T00:25:07.529Z,79.74
2022-08-17T00:27:36.390Z,80.63
2022-08-17T00:30:06.041Z,79.98
2022-08-17T00:33:12.594Z,80.08
2022-08-17T00:35:39.677Z,79.74
2022-08-17T00:38:09.378Z,79.63
2022-08-17T00:40:46.138Z,79.63
2022-08-17T00:43:28.860Z,79.48
2022-08-17T00:45:56.096Z,79.56
2022-08-17T00:48:29.101Z,80.08
2022-08-17T00:51:15.794Z,79.59
2022-08-17T00:53:51.038Z,80.07
2022-08-17T00:56:27.231Z,80.05
2022-08-17T00:58:55.273Z,79.95
2022-08-17T01:01:23.009Z,79.83
2022-08-17T01:03:59.661Z,79.40
2022-08-17T01:06:28.300Z,78.75
2022-08-17T01:08:57.927Z,77.84
2022-08-17T01:11:26.714Z,77.77
2022-08-17T01:13:53.439Z,77.77
2022-08-17T01:16:24.525Z,78.29
2022-08-17T01:19:01.185Z,78.58
2022-08-17T01:21:30.977Z,78.62
2022-08-17T01:23:57.818Z,78.63
2022-08-17T01:26:25.279Z,78.30
2022-08-17T01:28:55.516Z,77.86
2022-08-17T01:31:28.389Z,77.51
2022-08-17T01:33:57.832Z,77.03
2022-08-17T01:36:24.795Z,78.06
2022-08-17T01:38:51.696Z,77.68
2022-08-17T01:41:21.633Z,77.64
2022-08-17T01:43:56.436Z,77.53
2022-08-17T01:46:30.421Z,77.26
2022-08-17T01:48:58.217Z,76.89
2022-08-17T01:51:32.021Z,77.25
2022-08-17T01:54:06.217Z,77.91
2022-08-17T01:56:35.522Z,77.80
2022-08-17T01:59:03.617Z,77.58
2022-08-17T02:01:33.245Z,77.38
2022-08-17T02:04:01.973Z,77.65
2022-08-17T02:06:31.608Z,77.23
2022-08-17T02:09:17.054Z,75.79
2022-08-17T02:11:44.876Z,75.56
2022-08-17T02:14:13.590Z,75.01
2022-08-17T02:16:41.472Z,75.08
2022-08-17T02:19:12.502Z,75.11
2022-08-17T02:21:41.401Z,74.71
2022-08-17T02:24:12.927Z,74.83
2022-08-17T02:26:39.868Z,74.86
2022-08-17T02:29:07.123Z,75.12
2022-08-17T02:31:35.202Z,75.90
2022-08-17T02:34:04.448Z,75.39
2022-08-17T02:36:34.619Z,76.17
2022-08-17T02:39:06.695Z,75.57
2022-08-17T02:41:34.045Z,74.43
2022-08-17T02:44:00.851Z,73.49
2022-08-17T02:46:29.860Z,73.38
2022-08-17T02:48:57.484Z,73.45
2022-08-17T02:51:25.518Z,73.53
2022-08-17T02:53:52.773Z,74.01
2022-08-17T02:56:39.898Z,73.45
2022-08-17T02:59:06.754Z,73.43
2022-08-17T03:01:33.734Z,73.12
2022-08-17T03:04:00.623Z,73.49
2022-08-17T03:06:28.699Z,73.74
2022-08-17T03:08:55.393Z,74.57
2022-08-17T03:11:23.227Z,74.92
2022-08-17T03:13:50.548Z,74.67
2022-08-17T03:16:17.423Z,75.07
2022-08-17T03:18:44.361Z,75.10
2022-08-17T03:21:11.174Z,74.57
2022-08-17T03:23:41.625Z,74.70
2022-08-17T03:26:15.391Z,75.16
2022-08-17T03:28:43.100Z,75.27
2022-08-17T03:31:09.951Z,75.71
2022-08-17T03:33:36.927Z,75.66
2022-08-17T03:36:04.157Z,75.97
2022-08-17T03:38:39.213Z,76.03
2022-08-17T03:41:06.994Z,76.68
2022-08-17T03:43:34.195Z,76.75
2022-08-17T03:46:27.939Z,77.17
2022-08-17T03:49:24.436Z,77.35
2022-08-17T03:52:11.137Z,76.56
2022-08-17T03:54:57.128Z,77.61
2022-08-17T03:57:24.205Z,77.22
2022-08-17T03:59:52.466Z,76.70
2022-08-17T04:02:29.642Z,76.78
2022-08-17T04:04:57.655Z,76.77
2022-08-17T04:07:27.628Z,76.51
2022-08-17T04:09:54.697Z,76.61
2022-08-17T04:12:23.448Z,76.75
2022-08-17T04:14:53.223Z,76.67
2022-08-17T04:17:26.258Z,76.20
2022-08-17T04:19:54.352Z,76.61
2022-08-17T04:22:31.290Z,76.92
2022-08-17T04:25:05.244Z,77.43
2022-08-17T04:27:32.148Z,77.56
2022-08-17T04:29:58.885Z,77.20
2022-08-17T04:33:05.527Z,76.34
2022-08-17T04:35:18.134Z,76.09
2022-08-17T04:37:44.979Z,75.96
2022-08-17T04:40:30.752Z,76.60
2022-08-17T04:43:14.902Z,76.53
2022-08-17T04:45:56.042Z,76.25
2022-08-17T04:48:29.844Z,76.01
2022-08-17T04:51:10.871Z,75.33
2022-08-17T04:53:40.356Z,75.57
2022-08-17T04:56:11.796Z,75.25
2022-08-17T04:58:45.209Z,75.10
2022-08-17T05:01:12.361Z,74.76
2022-08-17T05:03:39.652Z,74.08
2022-08-17T05:06:06.940Z,73.46
2022-08-17T05:08:34.067Z,73.10
2022-08-17T05:11:01.604Z,73.26
2022-08-17T05:13:29.468Z,73.04
2022-08-17T05:15:59.834Z,73.13
2022-08-17T05:18:29.214Z,72.82
2022-08-17T05:20:56.978Z,72.24
2022-08-17T05:23:26.574Z,72.53
2022-08-17T05:26:02.559Z,72.12
2022-08-17T05:28:30.809Z,71.86
2022-08-17T05:31:00.744Z,72.24
2022-08-17T05:33:31.329Z,71.68
2022-08-17T05:35:59.727Z,71.10
2022-08-17T05:38:28.839Z,70.78
2022-08-17T05:40:56.739Z,69.78
2022-08-17T05:43:30.435Z,69.74
2022-08-17T05:46:04.076Z,69.37
2022-08-17T05:48:40.912Z,69.72
2022-08-17T05:51:45.605Z,69.29
2022-08-17T05:54:22.531Z,69.60
2022-08-17T05:57:11.086Z,69.84
2022-08-17T06:00:00.828Z,70.03
2022-08-17T06:02:56.467Z,70.34
2022-08-17T06:05:35.500Z,69.38
2022-08-17T06:08:17.294Z,68.09
2022-08-17T06:10:53.639Z,67.42
2022-08-17T06:13:44.901Z,67.10
2022-08-17T06:16:33.720Z,66.77
2022-08-17T06:19:25.466Z,66.39
2022-08-17T06:21:54.403Z,66.47
2022-08-17T06:24:28.504Z,66.63
2022-08-17T06:27:06.887Z,66.02
2022-08-17T06:29:56.365Z,65.40
2022-08-17T06:32:24.657Z,65.52
2022-08-17T06:34:52.923Z,65.57
2022-08-17T06:37:48.502Z,65.46
2022-08-17T06:40:30.670Z,66.93
2022-08-17T06:43:25.737Z,66.97
2022-08-17T06:46:23.353Z,66.41
2022-08-17T06:48:59.402Z,66.81
2022-08-17T06:51:29.601Z,66.68
2022-08-17T06:54:10.821Z,66.56
2022-08-17T06:56:52.921Z,65.69
2022-08-17T06:59:25.872Z,65.06
2022-08-17T07:02:04.795Z,63.97
2022-08-17T07:04:34.858Z,64.14
2022-08-17T07:07:27.164Z,63.71
2022-08-17T07:09:59.242Z,63.41
2022-08-17T07:12:37.952Z,62.54
2022-08-17T07:15:08.100Z,62.01
2022-08-17T07:17:46.975Z,62.17
2022-08-17T07:20:22.349Z,62.62
2022-08-17T07:23:15.012Z,61.58
2022-08-17T07:25:41.862Z,60.70
2022-08-17T07:28:08.584Z,59.56
2022-08-17T07:30:48.726Z,58.43
2022-08-17T07:33:27.055Z,58.69
2022-08-17T07:35:57.681Z,58.71
2022-08-17T07:38:28.118Z,58.17
2022-08-17T07:41:00.798Z,58.35
2022-08-17T07:43:40.093Z,58.16
2022-08-17T07:46:40.978Z,56.64
2022-08-17T07:49:12.010Z,57.50
2022-08-17T07:51:52.602Z,57.43
2022-08-17T07:54:26.970Z,56.57
2022-08-17T07:56:55.494Z,56.58
2022-08-17T07:59:39.154Z,56.21
2022-08-17T08:02:33.695Z,55.65
2022-08-17T08:05:12.396Z,56.27
2022-08-17T08:07:50.628Z,57.06
2022-08-17T08:10:42.714Z,56.68
2022-08-17T08:13:19.808Z,56.80
2022-08-17T08:15:54.227Z,56.40
2022-08-17T08:18:55.755Z,56.85
2022-08-17T08:21:54.557Z,56.75
2022-08-17T08:24:33.382Z,56.92
2022-08-17T08:27:21.940Z,57.22
2022-08-17T08:29:53.313Z,57.44
2022-08-17T08:32:20.366Z,57.15
2022-08-17T08:35:03.007Z,57.25
2022-08-17T08:37:43.758Z,57.35
2022-08-17T08:40:19.991Z,57.58
2022-08-17T08:43:22.266Z,57.92
2022-08-17T08:45:55.988Z,58.16
2022-08-17T08:48:56.563Z,58.04
2022-08-17T08:51:27.842Z,57.48
2022-08-17T08:53:57.567Z,57.55
2022-08-17T08:56:32.225Z,56.76
2022-08-17T08:59:07.272Z,56.64
2022-08-17T09:01:44.406Z,56.46
2022-08-17T09:04:26.526Z,56.16
2022-08-17T09:07:18.554Z,55.97
2022-08-17T09:10:04.549Z,56.17
2022-08-17T09:13:28.143Z,55.70
2022-08-17T09:16:03.473Z,55.23
2022-08-17T09:19:00.795Z,55.36
2022-08-17T09:21:33.949Z,54.49
2022-08-17T09:24:20.748Z,54.06
2022-08-17T09:27:18.810Z,53.55
2022-08-17T09:29:50.900Z,52.09
2022-08-17T09:32:24.897Z,51.40
2022-08-17T09:35:02.179Z,49.49
2022-08-17T09:37:37.164Z,49.38
2022-08-17T09:40:09.758Z,48.24
2022-08-17T09:42:50.780Z,47.20
2022-08-17T09:45:31.167Z,46.76
2022-08-17T09:48:11.797Z,46.62
2022-08-17T09:51:04.518Z,46.86
2022-08-17T09:53:36.725Z,46.45
2022-08-17T09:56:16.002Z,47.17
2022-08-17T09:59:08.509Z,47.69
2022-08-17T10:01:43.101Z,47.84
2022-08-17T10:04:32.310Z,46.79
2022-08-17T10:07:17.300Z,46.75
2022-08-17T10:09:55.173Z,47.55
2022-08-17T10:12:29.958Z,48.23
2022-08-17T10:15:15.345Z,47.67
2022-08-17T10:18:03.514Z,46.93
2022-08-17T10:20:45.556Z,45.32
2022-08-17T10:23:39.709Z,44.01
2022-08-17T10:26:18.633Z,45.74
2022-08-17T10:28:56.857Z,47.05
2022-08-17T10:31:45.534Z,46.65
2022-08-17T10:34:48.695Z,45.34
2022-08-17T10:38:00.314Z,45.24
2022-08-17T10:40:55.616Z,43.71
2022-08-17T10:44:35.419Z,43.68
2022-08-17T10:46:55.965Z,42.77
2022-08-17T10:49:29.066Z,42.99
2022-08-17T10:52:03.297Z,43.35
2022-08-17T10:54:35.467Z,42.82
2022-08-17T10:57:02.993Z,43.20
2022-08-17T10:59:35.739Z,42.68
2022-08-17T11:02:14.659Z,42.81
2022-08-17T11:04:59.792Z,42.28
2022-08-17T11:07:57.969Z,41.94
2022-08-17T11:10:52.278Z,41.20
2022-08-17T11:13:48.086Z,40.39
2022-08-17T11:16:50.405Z,40.15
2022-08-17T11:19:43.049Z,39.44
2022-08-17T11:22:33.412Z,41.07
2022-08-17T11:25:31.109Z,41.23
2022-08-17T11:28:13.418Z,41.49
2022-08-17T11:30:46.475Z,41.26
2022-08-17T11:33:33.673Z,41.53
2022-08-17T11:36:23.068Z,41.94
2022-08-17T11:39:17.767Z,41.76
2022-08-17T11:41:50.653Z,42.65
2022-08-17T11:44:39.532Z,42.25
2022-08-17T11:48:23.647Z,42.52
2022-08-17T11:51:17.840Z,42.42
2022-08-17T11:53:45.531Z,41.54
2022-08-17T11:56:31.437Z,40.96
2022-08-17T11:59:00.340Z,40.50
2022-08-17T12:01:28.686Z,41.40
2022-08-17T12:04:22.460Z,41.83
2022-08-17T12:07:00.469Z,44.19
2022-08-17T12:09:31.871Z,45.33
2022-08-17T12:12:14.350Z,46.21
2022-08-17T12:15:09.713Z,45.24
2022-08-17T12:17:40.914Z,44.61
2022-08-17T12:20:34.291Z,45.27
2022-08-17T12:23:33.667Z,45.15
2022-08-17T12:26:13.281Z,45.27
2022-08-17T12:28:46.319Z,46.05
2022-08-17T12:31:24.358Z,46.90
2022-08-17T12:33:51.564Z,46.62
2022-08-17T12:36:24.688Z,45.91
2022-08-17T12:39:14.369Z,45.29
2022-08-17T12:41:46.234Z,46.05
2022-08-17T12:44:22.885Z,46.08
2022-08-17T12:47:21.943Z,45.11
2022-08-17T12:49:54.826Z,44.30
2022-08-17T12:52:24.678Z,43.53
2022-08-17T12:55:18.244Z,43.20
2022-08-17T12:57:48.973Z,44.97
2022-08-17T13:00:30.011Z,45.20
2022-08-17T13:03:35.723Z,45.96
2022-08-17T13:06:08.641Z,46.74
2022-08-17T13:08:42.454Z,47.66
2022-08-17T13:11:18.469Z,48.27
2022-08-17T13:13:54.561Z,48.67
2022-08-17T13:16:27.454Z,49.32
2022-08-17T13:19:09.343Z,49.83
2022-08-17T13:21:37.735Z,50.20
2022-08-17T13:24:10.277Z,50.63
2022-08-17T13:26:37.118Z,50.43
2022-08-17T13:29:33.161Z,50.41
2022-08-17T13:32:13.430Z,50.66
2022-08-17T13:35:08.305Z,50.62
2022-08-17T13:37:40.720Z,50.20
2022-08-17T13:40:09.591Z,50.19
2022-08-17T13:42:50.215Z,49.48
2022-08-17T13:45:39.304Z,49.07
2022-08-17T13:48:16.088Z,48.77
2022-08-17T13:51:03.608Z,48.99
2022-08-17T13:53:36.342Z,48.47
2022-08-17T13:56:37.140Z,48.32
2022-08-17T13:59:10.969Z,47.75
2022-08-17T14:01:43.560Z,47.51
2022-08-17T14:04:12.732Z,47.69
2022-08-17T14:06:54.204Z,47.64
2022-08-17T14:09:37.407Z,46.93
2022-08-17T14:12:10.008Z,46.07
2022-08-17T14:14:37.483Z,46.21
2022-08-17T14:17:05.136Z,46.30
2022-08-17T14:19:35.753Z,46.80
2022-08-17T14:22:04.572Z,47.28
2022-08-17T14:24:41.272Z,46.82
2022-08-17T14:27:17.383Z,47.25
2022-08-17T14:29:44.666Z,47.06
2022-08-17T14:32:24.203Z,46.93
2022-08-17T14:34:52.075Z,47.31
2022-08-17T14:37:20.663Z,47.23
2022-08-17T14:39:47.891Z,47.06
2022-08-17T14:42:17.135Z,47.48
2022-08-17T14:44:43.941Z,47.43
2022-08-17T14:47:14.512Z,47.59
2022-08-17T14:49:41.951Z,47.60
2022-08-17T14:52:12.175Z,47.54
2022-08-17T14:54:43.745Z,47.86
2022-08-17T14:57:25.843Z,47.58
2022-08-17T14:59:59.765Z,46.78
2022-08-17T15:02:29.663Z,47.31
2022-08-17T15:05:05.503Z,47.08
2022-08-17T15:07:32.367Z,47.30
2022-08-17T15:10:01.730Z,47.26
2022-08-17T15:12:33.161Z,47.27
2022-08-17T15:15:05.708Z,47.24
2022-08-17T15:17:44.737Z,47.39
2022-08-17T15:20:18.693Z,47.45
2022-08-17T15:22:49.267Z,47.98
2022-08-17T15:25:18.351Z,47.58
2022-08-17T15:27:45.185Z,47.15
2022-08-17T15:30:12.858Z,47.32
2022-08-17T15:32:50.819Z,47.56
2022-08-17T15:35:27.547Z,47.30
2022-08-17T15:38:01.626Z,47.04
2022-08-17T15:40:36.676Z,47.31
2022-08-17T15:43:10.341Z,46.06
2022-08-17T15:45:38.180Z,46.12
2022-08-17T15:48:05.331Z,46.11
2022-08-17T15:50:32.215Z,45.69
2022-08-17T15:53:01.072Z,45.76
2022-08-17T15:55:30.394Z,46.81
2022-08-17T15:57:57.762Z,48.51
2022-08-17T16:00:27.735Z,49.79
2022-08-17T16:03:46.297Z,50.38
2022-08-17T16:05:43.076Z,51.52
2022-08-17T16:08:10.521Z,52.06
2022-08-17T16:10:37.548Z,52.54
2022-08-17T16:13:04.625Z,52.74
2022-08-17T16:15:31.814Z,53.47
2022-08-17T16:17:59.313Z,53.17
2022-08-17T16:20:27.082Z,53.38
2022-08-17T16:22:54.975Z,54.93
2022-08-17T16:25:38.887Z,55.38
2022-08-17T16:28:17.426Z,55.20
2022-08-17T16:30:44.957Z,55.02
2022-08-17T16:33:13.285Z,55.54
2022-08-17T16:35:41.530Z,55.62
2022-08-17T16:38:09.295Z,55.62
2022-08-17T16:40:36.443Z,55.65
2022-08-17T16:43:09.968Z,55.56
2022-08-17T16:45:39.763Z,55.90
2022-08-17T16:48:08.106Z,56.68
2022-08-17T16:50:36.013Z,57.14
2022-08-17T16:53:09.956Z,57.32
2022-08-17T16:55:38.098Z,56.97
2022-08-17T16:58:08.359Z,57.14
2022-08-17T17:00:36.914Z,57.64
2022-08-17T17:03:19.817Z,57.46
2022-08-17T17:05:55.269Z,58.40
2022-08-17T17:08:46.287Z,58.32
2022-08-17T17:11:47.640Z,58.17
2022-08-17T17:14:24.855Z,58.29
2022-08-17T17:17:03.265Z,58.01
2022-08-17T17:19:37.769Z,58.21
2022-08-17T17:22:12.828Z,58.47
2022-08-17T17:24:47.052Z,58.83
2022-08-17T17:27:29.783Z,59.14
2022-08-17T17:30:03.460Z,59.56
2022-08-17T17:32:37.481Z,59.40
2022-08-17T17:35:10.314Z,59.10
2022-08-17T17:37:39.528Z,59.31
2022-08-17T17:40:15.864Z,59.76
2022-08-17T17:42:44.571Z,60.54
2022-08-17T17:45:22.709Z,60.11
2022-08-17T17:47:50.225Z,61.33
2022-08-17T17:50:19.405Z,62.69
2022-08-17T17:52:57.119Z,61.92
2022-08-17T17:55:59.649Z,62.14
2022-08-17T17:58:57.321Z,62.06
2022-08-17T18:01:24.241Z,62.80
2022-08-17T18:04:21.160Z,62.06
2022-08-17T18:07:11.920Z,62.05
2022-08-17T18:10:29.611Z,62.89
2022-08-17T18:13:09.517Z,62.75
2022-08-17T18:16:00.347Z,62.93
2022-08-17T18:18:39.682Z,62.96
2022-08-17T18:21:18.905Z,63.87
2022-08-17T18:23:48.499Z,63.79
2022-08-17T18:26:33.672Z,64.80
2022-08-17T18:29:11.066Z,63.79
2022-08-17T18:31:37.782Z,63.86
2022-08-17T18:37:27.269Z,64.71
2022-08-17T18:39:54.664Z,64.78
2022-08-17T18:42:27.013Z,64.94
2022-08-17T18:44:55.459Z,64.86
2022-08-17T18:47:25.641Z,64.86
2022-08-17T18:49:57.009Z,65.37
2022-08-17T18:52:33.275Z,65.65
2022-08-17T18:55:13.847Z,65.26
2022-08-17T18:57:51.897Z,65.75
2022-08-17T19:00:40.670Z,66.79
2022-08-17T19:03:17.267Z,66.37
2022-08-17T19:05:54.144Z,66.38
2022-08-17T19:08:20.988Z,66.75
2022-08-17T19:10:58.280Z,66.36
2022-08-17T19:13:40.996Z,66.26
2022-08-17T19:16:18.001Z,66.69
2022-08-17T19:19:04.941Z,66.34
2022-08-17T19:21:40.983Z,66.79
2022-08-17T19:24:13.767Z,66.91
2022-08-17T19:26:56.329Z,66.91
2022-08-17T19:29:34.563Z,66.52
2022-08-17T19:32:02.022Z,66.70
2022-08-17T19:34:33.499Z,66.34
2022-08-17T19:37:07.010Z,67.09
2022-08-17T19:39:51.485Z,67.35
2022-08-17T19:42:21.271Z,67.54
2022-08-17T19:45:03.473Z,68.20
2022-08-17T19:47:55.409Z,68.54
2022-08-17T19:50:32.470Z,69.04
2022-08-17T19:53:19.188Z,69.03
2022-08-17T19:55:55.957Z,68.52
2022-08-17T19:58:22.906Z,68.61
2022-08-17T20:00:52.530Z,68.72
2022-08-17T20:03:45.677Z,68.79
2022-08-17T20:06:14.195Z,68.84
2022-08-17T20:08:58.327Z,68.76
2022-08-17T20:11:40.601Z,69.62
2022-08-17T20:14:23.957Z,70.50
2022-08-17T20:16:51.202Z,71.87
2022-08-17T20:19:51.565Z,72.37
2022-08-17T20:22:58.564Z,72.59
2022-08-17T20:25:46.034Z,72.64
2022-08-17T20:28:21.516Z,73.16
2022-08-17T20:30:48.534Z,73.09
2022-08-17T20:33:41.834Z,73.66
2022-08-17T20:36:15.395Z,74.18
2022-08-17T20:38:48.097Z,72.76
2022-08-17T20:41:26.407Z,72.36
2022-08-17T20:43:55.767Z,71.45
2022-08-17T20:46:56.001Z,71.76
2022-08-17T20:49:40.908Z,71.01
2022-08-17T20:52:31.128Z,70.93
2022-08-17T20:54:58.047Z,71.28
2022-08-17T20:57:31.034Z,71.21
2022-08-17T21:00:00.839Z,71.43
2022-08-17T21:02:28.711Z,71.33
2022-08-17T21:04:56.606Z,71.31
2022-08-17T21:07:28.673Z,71.28
2022-08-17T21:10:15.782Z,71.33
2022-08-17T21:12:52.961Z,71.54
2022-08-17T21:15:47.954Z,71.95
2022-08-17T21:18:22.709Z,71.82
2022-08-17T21:21:08.413Z,71.66
2022-08-17T21:23:44.449Z,71.54
2022-08-17T21:26:32.106Z,71.78
2022-08-17T21:29:30.144Z,71.71
2022-08-17T21:32:03.961Z,71.52
2022-08-17T21:35:10.745Z,71.38
2022-08-17T21:37:43.460Z,71.51
2022-08-17T21:40:10.357Z,71.30
2022-08-17T21:42:47.227Z,71.79
2022-08-17T21:45:36.591Z,71.91
2022-08-17T21:48:14.786Z,72.28
2022-08-17T21:50:45.162Z,72.34
2022-08-17T21:53:25.412Z,72.04
2022-08-17T21:55:54.542Z,72.50
2022-08-17T21:58:43.625Z,72.15
2022-08-17T22:01:29.498Z,72.41
2022-08-17T22:04:22.390Z,72.66
2022-08-17T22:06:52.403Z,72.65
2022-08-17T22:09:40.933Z,72.65
2022-08-17T22:12:12.514Z,72.80
2022-08-17T22:14:52.198Z,72.33
2022-08-17T22:17:28.164Z,72.56
2022-08-17T22:20:03.815Z,73.38
2022-08-17T22:23:02.524Z,73.60
2022-08-17T22:25:33.062Z,73.32
2022-08-17T22:28:02.167Z,72.86
2022-08-17T22:30:36.970Z,72.76
2022-08-17T22:33:42.546Z,73.32
2022-08-17T22:36:26.587Z,74.16
2022-08-17T22:39:07.852Z,74.41
2022-08-17T22:41:40.625Z,74.26
2022-08-17T22:44:33.722Z,74.30
2022-08-17T22:47:18.587Z,74.57
2022-08-17T22:49:54.222Z,75.35
2022-08-17T22:52:35.011Z,75.54
2022-08-17T22:55:27.225Z,75.56
2022-08-17T22:58:13.015Z,75.80
2022-08-17T23:00:45.858Z,75.68
2022-08-17T23:03:17.281Z,75.61
2022-08-17T23:06:01.611Z,75.78
2022-08-17T23:08:29.476Z,75.21
2022-08-17T23:10:59.696Z,75.36
2022-08-17T23:13:27.188Z,75.96
2022-08-17T23:15:53.906Z,75.93
2022-08-17T23:18:22.899Z,76.12
2022-08-17T23:20:50.150Z,75.96
2022-08-17T23:23:21.852Z,76.24
2022-08-17T23:25:50.702Z,75.71
2022-08-17T23:28:17.854Z,75.97
2022-08-17T23:30:47.684Z,76.11
2022-08-17T23:33:29.480Z,76.31
2022-08-17T23:36:00.053Z,76.40
2022-08-17T23:38:27.739Z,75.91
2022-08-17T23:40:59.301Z,75.63
2022-08-17T23:43:28.285Z,75.89
2022-08-17T23:45:58.160Z,75.65
2022-08-17T23:48:28.369Z,75.14
2022-08-17T23:51:08.550Z,74.76
2022-08-17T23:53:37.293Z,74.78
2022-08-17T23:56:09.648Z,74.78
2022-08-17T23:58:40.001Z,74.72
